Aérodrome :







RETROUVEZ-NOUS SUR...

 
LOGIN :

S'inscrire | Disclaimer

   EN    FR    IT 

 









Légende :    VFR   VFR Marginal   IFR   IFR Intensif   IFR Très Intensif
Visi : 
Plafond : 
>= 8 km
>= 3000ft
5 à 8 km
1000 à 3000 ft
1500m à 5 km
500 à 1000 ft
800 à 1500m
200 à 500 ft
< 800m
< 200 ft
Symboles :   Orages  Brouillard  Fortes neiges  Fortes précipitations  Vent > 20 kt






- Altitude de l'aérodrome : 26 ft
- Code IATA : CAY


SOCA - Rochambeau

DERNIER METAR :
  • 271630Z AUTO 05013KT 9999 BKN027 BKN035 OVC044 29/23 Q1012 TEMPO 1000 TSRA SCT012CB

METARs EXPIRÉS :
  • 271600Z AUTO 05013KT 9999 SCT028 BKN037 BKN043 30/23 Q1013 TEMPO 1000 TSRA SCT012CB
  • 271530Z AUTO 06015KT 030V090 9999 BKN028 OVC034 30/23 Q1013 TEMPO 1000 TSRA SCT012CB
  • 271500Z AUTO 07013KT 9999 BKN026 BKN060 OVC070 30/23 Q1013 TEMPO 1000 TSRA SCT012CB
  • 271430Z AUTO 07014KT 9999 BKN028 BKN039 BKN046 29/23 Q1014 TEMPO 1000 TSRA SCT012CB

TAF TAF SOCA
Valide du 27 à 12h jusqu'au 28 à 12h UTC


271000Z 2712/2812 08010KT 9999 SCT025
TEMPO 2716/2812 2000 SHRA SCT007 BKN015TCU
PROB30
TEMPO 2716/2720 1000 TSRA SCT012CB
BECMG 2722/2724 VRB03KT
FIR SOOO / Amérique du Sud



MET'MAP, la Météo Aéronautique d'un coup d'oeil ! - Copyright ORBIFLY Décembre 2007 - Disclaimer

ORBIFLY MET'MAP TEAM :

Programmation & Développement : Alexandra Zaïnal
Sur une idée originale de : Baudouin d'Aumeries
Assistance à la programmation : Marc-Olivier Méhu
Soutien technique & logistique : Manuel Goepfert

Contact : metmap@orbifly.com




SOURCES & CREDITS :

   NOAA